Mountain View, CA (94041)

12:39 AM PDT en Octubre 31, 2014 (GMT -0700)
Old Mountain View | Change Station
CLOSE
Current Station
Estación meteorológica personal
Location: Mountain View, CA
Altura: 112 ft
Estaciones meteorológicas cercanas

Alt 112 ft 37.39 °N, 122.08 °W | Updated 8 minutes ago

Parcialmente nublado
Parcialmente nublado
59.2 ° F
Sensación térmica 59.2 ° F
N
0.0
Viento Variable Viento desde Sur

Hoy
Alta -- | Baja -- ° F
--% Posibilidad de precipitaciones
Ayer
Alta -- | Baja -- ° F
Precip. -- pul
7:32 AM 6:11 PM
Cuarto creciente, 52% visible
Presión 29.94 pul
Visibilidad 10.0 Millas
Nubes Despejado
Punto de rocío 56 ° F
Humedad 88%
Precipitaciones 0.00 pul
Espesor de la nieve No disponible.
UV 0 de una escala de 12
Polen 2.20 de una escala de 12
Calidad del aire No disponible.
Flu Activity No disponible.
METAR KNUQ 310656Z AUTO 22003KT 10SM CLR 16/14 A2992 RMK AO2 SLP136 T01610144 TSNO

More Conditions Fewer Conditions

Presión 29.94 pul
Visibilidad 10.0 Millas
Nubes Despejado
Punto de rocío 56 ° F
Humedad 88%
Precipitaciones 0.00 pul
Espesor de la nieve No disponible.
UV 0 de una escala de 12
Polen 2.20 de una escala de 12
Calidad del aire No disponible.
Flu Activity No disponible.
METAR KNUQ 310656Z AUTO 22003KT 10SM CLR 16/14 A2992 RMK AO2 SLP136 T01610144 TSNO

More Conditions Fewer Conditions

10-Day Weather Forecast

Almanac

Astronomía

Oct. 31, 2014 Salida Puesta
Hora real
Crepúsculo civil
Crepúsculo náutico
Crepúsculo astronómico
Luna
Horas de luz
Horas de luz
Tomorrow will be .
, % of the Moon is Illuminated

Extremos de hoy

Máximos del estado Bajos del estado

Community

WunderPhotos

Upload Photos

1,766,573 ¡fotos cargadas!

WunderBlogs® & News

Nearby

Calidad del aire

  Calidad del aire Índice AQ Contaminante
Not available.

Grosos de nieve

Estación Profundido Altura

Actividad de terremotos

Ciudad Distance Mag. Tiempo y dato
Magnitud mínima muestra es 2,5.

Temperaturas de aguas costeras

Lugar Temperatura

Estaciones meteorológicas cercanas